Time;durP1;ratioP1;P1;durP2;ratioP2;P2;SDS_P1;SDS_P2;PMS_P1;PMS_P2;Temp;Humidity;BMP_temperature;BMP_pressure;BME280_temperature;BME280_humidity;BME280_pressure;Samples;Min_cycle;Max_cycle;Signal;HPM_P1;HPM_P2
2024/02/02 00:00:05;;;;;;;12.10;5.40;;;;;;;2.93;93.72;97286.27;106843;1294;22565;-87
2024/02/02 00:03:24;;;;;;;13.90;7.10;;;;;;;2.93;94.02;97281.10;106832;1294;22597;-87
2024/02/02 00:06:52;;;;;;;14.10;6.90;;;;;;;2.93;93.49;97285.06;106878;1301;23367;-86
2024/02/02 00:10:19;;;;;;;11.60;5.60;;;;;;;2.91;93.30;97288.63;106934;1295;138373;-86
2024/02/02 00:13:47;;;;;;;9.20;4.20;;;;;;;2.92;92.37;97291.96;106866;1301;25323;-87
2024/02/02 00:17:14;;;;;;;14.20;7.30;;;;;;;2.90;92.47;97294.86;106781;1301;138030;-87
2024/02/02 00:20:42;;;;;;;9.90;5.10;;;;;;;2.89;92.05;97293.20;107030;1300;22547;-86
2024/02/02 00:24:09;;;;;;;8.70;4.60;;;;;;;2.88;92.59;97293.60;106902;1297;26009;-87
2024/02/02 00:27:36;;;;;;;9.20;5.00;;;;;;;2.88;92.67;97292.60;106880;1301;22581;-87
2024/02/02 00:31:06;;;;;;;12.00;5.60;;;;;;;2.86;92.31;97291.70;106866;1301;22585;-86
2024/02/02 00:38:00;;;;;;;7.90;5.00;;;;;;;2.85;92.43;97291.80;106823;1300;22577;-87
2024/02/02 00:41:28;;;;;;;9.40;4.80;;;;;;;2.84;92.66;97298.05;106567;1296;138233;-86
2024/02/02 00:44:57;;;;;;;7.00;3.70;;;;;;;2.83;92.34;97293.81;106865;1300;22672;-87
2024/02/02 00:48:22;;;;;;;6.40;3.70;;;;;;;2.83;92.12;97298.82;106853;1301;24189;-87
2024/02/02 00:51:50;;;;;;;6.80;3.50;;;;;;;2.83;92.52;97303.58;106995;1294;22586;-86
2024/02/02 00:55:18;;;;;;;4.90;3.20;;;;;;;2.85;92.14;97301.57;106812;1297;22557;-86
2024/02/02 00:58:39;;;;;;;7.20;3.30;;;;;;;2.84;92.27;97302.13;106865;1299;138725;-87
2024/02/02 01:02:06;;;;;;;10.10;4.00;;;;;;;2.83;92.53;97296.58;106906;1301;22583;-86
2024/02/02 01:05:39;;;;;;;8.90;3.40;;;;;;;2.83;92.77;97307.36;106525;1297;138346;-87
2024/02/02 01:09:07;;;;;;;7.90;3.70;;;;;;;2.82;92.54;97307.28;106662;1301;22604;-87
2024/02/02 01:12:25;;;;;;;;;;;;;;;;;;;;;
2024/02/02 01:15:54;;;;;;;5.60;3.60;;;;;;;2.80;93.14;97313.74;106749;1301;22630;-87
2024/02/02 01:19:09;;;;;;;8.90;3.70;;;;;;;2.80;92.70;97314.80;107023;1295;23634;-87
2024/02/02 01:22:37;;;;;;;6.30;3.80;;;;;;;2.79;93.09;97310.20;106784;1301;22575;-87
2024/02/02 01:25:58;;;;;;;5.60;3.20;;;;;;;2.79;92.78;97311.40;106770;1301;23847;-87
2024/02/02 01:29:49;;;;;;;6.90;3.30;;;;;;;2.78;93.08;97311.16;107024;1302;138665;-87
2024/02/02 01:32:52;;;;;;;7.40;3.50;;;;;;;2.80;93.08;97312.41;106697;1298;25206;-87
2024/02/02 01:36:19;;;;;;;7.50;3.60;;;;;;;2.80;92.93;97314.05;106659;1302;137049;-86
2024/02/02 01:39:46;;;;;;;8.20;3.10;;;;;;;2.82;93.03;97309.31;106837;1295;22579;-87
2024/02/02 01:43:12;;;;;;;;;;;;;;;;;;;;;
2024/02/02 01:46:28;;;;;;;7.80;3.20;;;;;;;2.82;92.62;97301.98;102497;1302;5387333;-85
2024/02/02 01:49:55;;;;;;;6.70;3.30;;;;;;;2.82;92.66;97305.42;106821;1298;22545;-87
2024/02/02 01:53:25;;;;;;;5.40;2.60;;;;;;;2.80;92.52;97304.98;106677;1302;138066;-86
2024/02/02 01:56:50;;;;;;;5.70;3.20;;;;;;;2.80;92.74;97307.40;106657;1302;23305;-87
2024/02/02 02:00:19;;;;;;;6.40;3.60;;;;;;;2.80;92.53;97307.93;106723;1300;138412;-87
2024/02/02 02:03:46;;;;;;;8.00;3.70;;;;;;;2.80;92.51;97299.53;106968;1302;22542;-87
2024/02/02 02:07:22;;;;;;;5.40;3.40;;;;;;;2.80;92.48;97300.58;106662;1301;22867;-87
2024/02/02 02:10:49;;;;;;;10.40;3.30;;;;;;;2.77;92.41;97310.36;106687;1294;138255;-87
2024/02/02 02:14:16;;;;;;;11.10;3.30;;;;;;;2.75;92.73;97310.52;106998;1297;25493;-86
2024/02/02 02:17:44;;;;;;;7.50;3.00;;;;;;;2.74;92.82;97315.38;106740;1301;138631;-87
2024/02/02 02:21:11;;;;;;;7.60;3.50;;;;;;;2.74;93.02;97312.14;106547;1302;23897;-86
2024/02/02 02:24:41;;;;;;;15.00;4.60;;;;;;;2.71;92.90;97311.79;106721;1302;138090;-87
2024/02/02 02:28:10;;;;;;;6.20;2.70;;;;;;;2.68;93.30;97317.30;106603;1294;24217;-87
2024/02/02 02:31:30;;;;;;;8.10;3.10;;;;;;;2.68;93.16;97314.41;106946;1300;23935;-87
2024/02/02 02:34:58;;;;;;;7.50;3.30;;;;;;;2.67;93.29;97305.59;106638;1301;138925;-85
2024/02/02 02:38:22;;;;;;;7.40;4.70;;;;;;;2.67;93.26;97307.66;106790;1302;22669;-85
2024/02/02 02:41:49;;;;;;;7.60;2.70;;;;;;;2.66;93.24;97301.77;106777;1294;138041;-85
2024/02/02 02:45:08;;;;;;;;;;;;;;;;;;;;;
2024/02/02 02:48:39;;;;;;;7.30;2.90;;;;;;;2.62;93.24;97302.38;107032;1297;138959;-85
2024/02/02 02:52:08;;;;;;;7.50;3.40;;;;;;;2.62;93.49;97304.27;106850;1294;22594;-85
2024/02/02 02:55:19;;;;;;;;;;;;;;;;;;;;;
2024/02/02 02:58:48;;;;;;;10.70;3.30;;;;;;;2.59;93.70;97310.48;106595;1303;162145;-85
2024/02/02 03:02:15;;;;;;;7.50;3.30;;;;;;;2.57;93.67;97314.99;106702;1302;23656;-85
2024/02/02 03:05:41;;;;;;;11.20;4.20;;;;;;;2.59;93.47;97311.83;106703;1298;138042;-84
2024/02/02 03:09:11;;;;;;;11.10;3.60;;;;;;;2.58;93.87;97307.30;106469;1304;24777;-84
2024/02/02 03:12:35;;;;;;;11.60;4.70;;;;;;;2.62;93.92;97308.88;106536;1303;138346;-85
2024/02/02 03:16:07;;;;;;;12.90;4.00;;;;;;;2.62;93.77;97308.19;106627;1298;22620;-85
2024/02/02 03:19:34;;;;;;;6.90;3.00;;;;;;;2.65;93.94;97306.91;106555;1303;22610;-84
2024/02/02 03:23:04;;;;;;;6.40;3.10;;;;;;;2.67;93.92;97308.66;106574;1303;138263;-82
2024/02/02 03:26:33;;;;;;;10.30;2.80;;;;;;;2.67;93.85;97311.44;106721;1287;22599;-84
2024/02/02 03:30:01;;;;;;;6.50;3.10;;;;;;;2.67;93.76;97313.14;106765;1302;138418;-84
2024/02/02 03:33:29;;;;;;;7.40;3.10;;;;;;;2.65;93.60;97318.08;106652;1303;23148;-83
2024/02/02 03:36:58;;;;;;;7.80;3.10;;;;;;;2.65;93.53;97319.58;106572;1304;138039;-84
2024/02/02 03:40:27;;;;;;;7.30;3.00;;;;;;;2.65;93.78;97323.70;106832;1286;22587;-84
2024/02/02 03:44:00;;;;;;;;;;;;;;;;;;;;;
2024/02/02 03:47:20;;;;;;;8.10;3.10;;;;;;;2.62;93.66;97323.25;106652;1287;139727;-85
2024/02/02 03:50:49;;;;;;;9.70;3.20;;;;;;;2.60;93.68;97322.84;106857;1302;22563;-85
2024/02/02 03:54:22;;;;;;;9.00;3.30;;;;;;;2.58;93.91;97323.16;106494;1297;138030;-85
2024/02/02 03:57:49;;;;;;;7.40;3.60;;;;;;;2.57;94.00;97329.92;106689;1299;22824;-85
2024/02/02 04:01:06;;;;;;;5.90;2.90;;;;;;;2.53;94.32;97340.13;106486;1303;138195;-85
2024/02/02 04:04:33;;;;;;;5.50;2.90;;;;;;;2.50;94.61;97334.56;106848;1301;22630;-83
2024/02/02 04:08:01;;;;;;;7.20;3.40;;;;;;;2.46;94.80;97334.34;107255;1295;22951;-84
2024/02/02 04:11:27;;;;;;;;;;;;;;;;;;;;;
2024/02/02 04:14:56;;;;;;;5.80;3.40;;;;;;;2.43;95.40;97340.68;106709;1303;25459;-82
2024/02/02 04:18:11;;;;;;;7.10;4.10;;;;;;;2.39;95.75;97333.54;106522;1297;137001;-83
2024/02/02 04:21:39;;;;;;;6.30;3.40;;;;;;;2.35;96.20;97340.16;106638;1302;25444;-82
2024/02/02 04:25:06;;;;;;;10.40;4.30;;;;;;;2.28;96.81;97340.36;106551;1295;138089;-84
2024/02/02 04:28:05;;;;;;;10.20;4.20;;;;;;;2.26;97.48;97347.66;106625;1303;22594;-84
2024/02/02 04:31:21;;;;;;;;;;;;;;;;;;;;;
2024/02/02 04:34:34;;;;;;;;;;;;;;;2.21;98.63;97350.09;106875;1300;22526;-84
2024/02/02 04:37:52;;;;;;;12.30;4.30;;;;;;;2.17;98.87;97355.18;106819;1295;22662;-84
2024/02/02 04:41:12;;;;;;;16.10;5.90;;;;;;;2.15;99.27;97352.91;106702;1302;137325;-84
2024/02/02 04:44:39;;;;;;;15.80;7.10;;;;;;;2.16;99.79;97357.48;106925;1298;23154;-85
2024/02/02 04:47:58;;;;;;;24.50;8.30;;;;;;;2.15;99.77;97359.23;106790;1302;138169;-84
2024/02/02 04:51:19;;;;;;;49.90;21.80;;;;;;;2.16;100.00;97356.23;106771;1302;22558;-84
2024/02/02 04:54:39;;;;;;;13.00;6.30;;;;;;;2.13;100.00;97353.20;106716;1297;138639;-85
2024/02/02 04:58:06;;;;;;;9.20;5.30;;;;;;;2.11;100.00;97356.55;106768;1295;22639;-85
2024/02/02 05:01:23;;;;;;;;;;;;;;;;;;;;;
2024/02/02 05:04:38;;;;;;;23.90;8.20;;;;;;;2.09;100.00;97355.50;106732;1302;24191;-85
2024/02/02 05:07:35;;;;;;;10.00;4.30;;;;;;;2.08;100.00;97361.70;106676;1302;22584;-84
2024/02/02 05:11:02;;;;;;;10.10;4.80;;;;;;;2.03;100.00;97366.70;106918;1302;25413;-84
2024/02/02 05:14:12;;;;;;;28.00;10.60;;;;;;;2.00;100.00;97372.02;106683;1301;23385;-84
2024/02/02 05:17:30;;;;;;;;;;;;;;;;;;;;;
2024/02/02 05:20:35;;;;;;;23.30;8.40;;;;;;;1.93;100.00;97379.48;106850;1294;22559;-85
2024/02/02 05:23:21;;;;;;;;;;;;;;;;;;;;;
2024/02/02 05:26:40;;;;;;;42.50;14.50;;;;;;;1.95;100.00;97379.70;106626;1302;22589;-85
2024/02/02 05:29:11;;;;;;;91.50;46.30;;;;;;;1.93;100.00;97385.16;106681;1301;139134;-85
2024/02/02 05:31:38;;;;;;;69.20;27.20;;;;;;;1.96;100.00;97394.55;106600;1302;23338;-85
2024/02/02 05:34:08;;;;;;;30.40;13.80;;;;;;;1.97;100.00;97392.60;106786;1294;22603;-85
2024/02/02 05:36:48;;;;;;;27.00;9.20;;;;;;;1.97;100.00;97391.06;106533;1280;138611;-85
2024/02/02 05:39:52;;;;;;;52.80;13.70;;;;;;;1.97;100.00;97391.88;106711;1295;22546;-85
2024/02/02 05:42:50;;;;;;;24.00;7.60;;;;;;;1.97;100.00;97391.25;106612;1303;139535;-85
2024/02/02 05:46:12;;;;;;;;;;;;;;;;;;;;;
2024/02/02 05:49:40;;;;;;;32.50;10.30;;;;;;;1.95;100.00;97395.29;106572;1303;138351;-85
2024/02/02 05:52:44;;;;;;;;;;;;;;;;;;;;;
2024/02/02 05:56:05;;;;;;;18.60;7.10;;;;;;;1.95;100.00;97401.27;106664;1302;22556;-84
2024/02/02 05:59:24;;;;;;;;;;;;;;;;;;;;;
2024/02/02 06:02:34;;;;;;;;;;;;;;;;;;;;;
2024/02/02 06:05:49;;;;;;;64.30;21.20;;;;;;;1.93;100.00;97410.44;106546;1297;138792;-85
2024/02/02 06:08:52;;;;;;;;;;;;;;;;;;;;;
2024/02/02 06:12:14;;;;;;;60.30;20.80;;;;;;;1.94;100.00;97410.21;106625;1303;139420;-85
2024/02/02 06:15:26;;;;;;;48.60;19.90;;;;;;;1.94;100.00;97413.48;106580;1303;22653;-85
2024/02/02 06:18:22;;;;;;;;;;;;;;;;;;;;;
2024/02/02 06:21:48;;;;;;;;;;;;;;;;;;;;;
2024/02/02 06:25:09;;;;;;;26.60;12.90;;;;;;;1.90;100.00;97409.95;106697;1303;138939;-84
2024/02/02 06:28:05;;;;;;;;;;;;;;;;;;;;;
2024/02/02 06:31:33;;;;;;;11.40;7.50;;;;;;;1.86;100.00;97403.95;106483;1302;138974;-84
2024/02/02 06:34:46;;;;;;;21.60;8.80;;;;;;;1.85;100.00;97412.02;106561;1296;22658;-85
2024/02/02 06:37:58;;;;;;;59.90;20.60;;;;;;;1.85;100.00;97418.33;106620;1303;23182;-85
2024/02/02 06:41:00;;;;;;;;;;;;;;;;;;;;;
2024/02/02 06:44:16;;;;;;;64.60;20.70;;;;;;;1.89;100.00;97414.11;106799;1301;22924;-85
2024/02/02 06:47:02;;;;;;;;;;;;;;;;;;;;;
2024/02/02 06:50:14;;;;;;;39.80;14.90;;;;;;;1.90;100.00;97415.27;106608;1302;22636;-84
2024/02/02 06:53:33;;;;;;;;;;;;;;;;;;;;;
2024/02/02 06:57:14;;;;;;;15.40;8.60;;;;;;;1.91;100.00;97418.61;106872;1302;22578;-85
2024/02/02 07:00:32;;;;;;;10.20;6.00;;;;;;;1.91;100.00;97428.71;106677;1302;138399;-85
2024/02/02 07:04:00;;;;;;;10.90;6.20;;;;;;;1.90;100.00;97434.90;106755;1302;22564;-85
2024/02/02 07:07:20;;;;;;;24.00;8.30;;;;;;;1.93;100.00;97440.67;106604;1302;138391;-85
2024/02/02 07:10:50;;;;;;;10.60;5.90;;;;;;;1.95;100.00;97435.77;106731;1297;25017;-85
2024/02/02 07:14:17;;;;;;;17.00;6.10;;;;;;;1.94;100.00;97436.66;106688;1295;25294;-85
2024/02/02 07:17:38;;;;;;;10.90;6.10;;;;;;;1.93;100.00;97431.79;106732;1302;23812;-85
2024/02/02 07:20:53;;;;;;;13.10;6.20;;;;;;;1.90;100.00;97435.23;106857;1302;22668;-84
2024/02/02 07:24:20;;;;;;;16.20;7.50;;;;;;;1.91;100.00;97435.89;106694;1302;138595;-84
2024/02/02 07:27:48;;;;;;;15.00;6.40;;;;;;;1.92;100.00;97434.77;106793;1300;22559;-85
2024/02/02 07:31:24;;;;;;;13.80;6.80;;;;;;;1.93;100.00;97437.65;107657;1295;138884;-84
2024/02/02 07:34:47;;;;;;;14.30;7.00;;;;;;;1.95;100.00;97438.17;106650;1300;22638;-85
2024/02/02 07:38:17;;;;;;;20.30;8.50;;;;;;;1.99;100.00;97438.75;106466;1297;138865;-85
2024/02/02 07:41:44;;;;;;;14.20;8.20;;;;;;;2.01;100.00;97437.27;106854;1298;21957;-84
2024/02/02 07:44:58;;;;;;;19.40;8.70;;;;;;;2.01;100.00;97439.65;106914;1302;22605;-85
2024/02/02 07:48:18;;;;;;;15.10;7.90;;;;;;;2.02;100.00;97438.73;106693;1301;138547;-85
2024/02/02 07:51:43;;;;;;;;;;;;;;;;;;;;;
2024/02/02 07:55:14;;;;;;;13.40;7.70;;;;;;;2.04;100.00;97450.19;106811;1302;138674;-86
2024/02/02 07:59:03;;;;;;;14.30;7.20;;;;;;;2.06;100.00;97451.06;106637;1299;25490;-86
2024/02/02 08:02:11;;;;;;;17.00;7.80;;;;;;;2.08;100.00;97452.30;106582;1302;138575;-87
2024/02/02 08:05:32;;;;;;;17.50;8.50;;;;;;;2.09;100.00;97452.60;106951;1301;22511;-86
2024/02/02 08:09:00;;;;;;;20.70;10.60;;;;;;;2.10;100.00;97458.81;106774;1301;22610;-86
2024/02/02 08:12:27;;;;;;;11.40;7.40;;;;;;;2.13;100.00;97461.58;106654;1302;137736;-86
2024/02/02 08:15:55;;;;;;;14.30;6.80;;;;;;;2.16;100.00;97457.25;106805;1302;24753;-86
2024/02/02 08:19:22;;;;;;;22.00;8.80;;;;;;;2.17;100.00;97455.52;106585;1302;138453;-86
2024/02/02 08:22:47;;;;;;;;;;;;;;;;;;;;;
2024/02/02 08:26:16;;;;;;;13.20;6.50;;;;;;;2.18;100.00;97460.91;106791;1300;137379;-84
2024/02/02 08:29:42;;;;;;;16.40;9.30;;;;;;;2.22;100.00;97457.91;106758;1301;22561;-84
2024/02/02 08:32:52;;;;;;;18.50;8.20;;;;;;;2.23;100.00;97456.64;106980;1295;22681;-84
2024/02/02 08:36:22;;;;;;;14.90;7.30;;;;;;;2.26;100.00;97456.77;106641;1301;138588;-84
2024/02/02 08:39:49;;;;;;;16.20;6.30;;;;;;;2.30;100.00;97459.91;106727;1299;22575;-84
2024/02/02 08:43:25;;;;;;;11.00;6.40;;;;;;;2.32;100.00;97464.02;106645;1301;138567;-84
2024/02/02 08:47:08;;;;;;;15.20;6.50;;;;;;;2.34;100.00;97464.20;106880;1294;22618;-84
2024/02/02 08:50:47;;;;;;;21.30;8.40;;;;;;;2.36;100.00;97467.71;106001;1302;23379;-84
2024/02/02 08:53:51;;;;;;;24.20;9.40;;;;;;;2.39;100.00;97467.48;106775;1301;139076;-84
2024/02/02 08:57:10;;;;;;;19.00;8.10;;;;;;;2.44;100.00;97469.71;106759;1302;25300;-84
2024/02/02 09:00:38;;;;;;;15.30;8.20;;;;;;;2.45;100.00;97468.85;106800;1302;138671;-84
2024/02/02 09:04:08;;;;;;;;;;;;;;;;;;;;;
2024/02/02 09:07:39;;;;;;;18.10;6.70;;;;;;;2.48;100.00;97469.27;106792;1303;138569;-84
2024/02/02 09:11:13;;;;;;;18.10;7.40;;;;;;;2.50;100.00;97466.55;106961;1301;22566;-84
2024/02/02 09:14:19;;;;;;;;;;;;;;;2.55;100.00;97465.70;106693;1300;22580;-84
2024/02/02 09:17:34;;;;;;;10.90;5.80;;;;;;;2.57;100.00;97462.30;106913;1302;24870;-84
2024/02/02 09:20:54;;;;;;;17.40;9.30;;;;;;;2.57;100.00;97465.91;106800;1300;22722;-84
2024/02/02 09:24:22;;;;;;;14.50;7.80;;;;;;;2.58;100.00;97470.42;107215;1302;138535;-85
2024/02/02 09:27:56;;;;;;;14.30;6.30;;;;;;;2.58;100.00;97471.45;106484;1295;22610;-84
2024/02/02 09:31:11;;;;;;;10.30;4.60;;;;;;;2.61;100.00;97466.84;106661;1302;138379;-84
2024/02/02 09:34:38;;;;;;;20.30;6.80;;;;;;;2.65;100.00;97464.48;106577;1302;22571;-84
2024/02/02 09:37:51;;;;;;;15.50;6.00;;;;;;;2.68;100.00;97464.25;106683;1302;137454;-84
2024/02/02 09:41:43;;;;;;;12.20;5.30;;;;;;;2.73;100.00;97465.30;106807;1296;22560;-83
2024/02/02 09:45:16;;;;;;;16.80;6.10;;;;;;;2.79;100.00;97464.94;106914;1303;22948;-84
2024/02/02 09:48:59;;;;;;;22.20;8.90;;;;;;;2.82;100.00;97463.46;106844;1302;138300;-84
2024/02/02 09:52:30;;;;;;;;;;;;;;;;;;;;;
2024/02/02 09:56:27;;;;;;;11.90;5.50;;;;;;;2.87;100.00;97465.48;106727;1296;138373;-84
2024/02/02 09:59:57;;;;;;;17.60;7.30;;;;;;;2.92;100.00;97460.00;106538;1302;22576;-84
2024/02/02 10:03:39;;;;;;;;;;;;;;;;;;;;;
2024/02/02 10:07:10;;;;;;;11.10;6.10;;;;;;;3.00;99.96;97458.30;105998;1302;138739;-85
2024/02/02 10:10:49;;;;;;;17.70;7.10;;;;;;;2.99;99.59;97459.73;106918;1295;22629;-85
2024/02/02 10:14:20;;;;;;;13.20;6.80;;;;;;;3.00;98.40;97462.38;106527;1302;138523;-85
2024/02/02 10:18:05;;;;;;;18.80;6.60;;;;;;;3.02;99.67;97467.19;106991;1301;26003;-85
2024/02/02 10:21:36;;;;;;;;;;;;;;;;;;;;;
2024/02/02 10:25:17;;;;;;;19.70;6.50;;;;;;;3.16;99.69;97451.48;106862;1301;138804;-85
2024/02/02 10:28:47;;;;;;;20.30;9.60;;;;;;;3.20;99.15;97440.10;106834;1302;22610;-85
2024/02/02 10:32:25;;;;;;;17.30;8.20;;;;;;;3.21;98.86;97446.85;106705;1301;138238;-85
2024/02/02 10:36:06;;;;;;;18.30;8.10;;;;;;;3.24;98.80;97441.99;106896;1302;22596;-85
2024/02/02 10:39:54;;;;;;;20.50;8.00;;;;;;;3.34;99.23;97442.83;106581;1301;23282;-85
2024/02/02 10:43:25;;;;;;;26.80;10.20;;;;;;;3.39;98.37;97434.27;106850;1300;138540;-85
2024/02/02 10:47:00;;;;;;;16.30;6.50;;;;;;;3.43;98.89;97432.40;106612;1303;22572;-86
2024/02/02 10:50:25;;;;;;;17.40;6.70;;;;;;;3.49;98.26;97434.21;106716;1303;138477;-85
2024/02/02 10:53:59;;;;;;;17.30;7.30;;;;;;;3.51;97.58;97425.60;106879;1295;22612;-85
2024/02/02 10:57:44;;;;;;;17.20;7.20;;;;;;;3.53;96.76;97417.59;106741;1303;25352;-85
2024/02/02 11:01:11;;;;;;;14.70;7.10;;;;;;;3.57;96.62;97418.83;106656;1303;138470;-85
2024/02/02 11:04:50;;;;;;;22.60;8.80;;;;;;;3.62;97.20;97411.17;106458;1302;23287;-87
2024/02/02 11:08:19;;;;;;;22.30;10.30;;;;;;;3.67;96.79;97405.63;106406;1297;138363;-87
2024/02/02 11:11:47;;;;;;;19.10;8.30;;;;;;;3.71;95.88;97400.23;106796;1302;22736;-86
2024/02/02 11:15:17;;;;;;;14.80;6.00;;;;;;;3.75;95.44;97395.63;106441;1302;138520;-86
2024/02/02 11:18:43;;;;;;;10.50;4.90;;;;;;;3.82;95.37;97392.70;106786;1301;22609;-86
2024/02/02 11:22:38;;;;;;;;;;;;;;;;;;;;;
2024/02/02 11:26:06;;;;;;;17.60;7.40;;;;;;;3.78;93.65;97383.91;106629;1303;138237;-86
2024/02/02 11:29:50;;;;;;;11.70;4.90;;;;;;;3.77;93.95;97377.09;106519;1303;22584;-85
2024/02/02 11:33:37;;;;;;;14.10;5.10;;;;;;;3.80;93.54;97367.95;106329;1303;140016;-86
2024/02/02 11:37:16;;;;;;;12.40;5.20;;;;;;;3.85;93.78;97361.10;106701;1297;137470;-86
2024/02/02 11:41:02;;;;;;;12.10;5.10;;;;;;;3.93;94.12;97354.83;106554;1303;22640;-85
2024/02/02 11:44:30;;;;;;;10.90;5.90;;;;;;;3.97;93.76;97356.25;105967;1301;138294;-86
2024/02/02 11:48:03;;;;;;;14.80;5.70;;;;;;;3.95;93.49;97346.95;106853;1294;22568;-85
2024/02/02 11:51:30;;;;;;;7.10;4.00;;;;;;;3.98;93.89;97346.55;106738;1301;22605;-86
2024/02/02 11:55:01;;;;;;;15.90;5.90;;;;;;;4.05;93.86;97341.92;106888;1301;22585;-86
2024/02/02 11:58:22;;;;;;;10.50;4.70;;;;;;;4.08;93.69;97335.64;106683;1298;22576;-85
2024/02/02 12:02:01;;;;;;;12.00;4.90;;;;;;;4.07;92.79;97331.63;106729;1301;138552;-86
2024/02/02 12:05:31;;;;;;;14.00;5.50;;;;;;;4.05;93.21;97334.16;106987;1302;22600;-85
2024/02/02 12:09:01;;;;;;;16.80;5.40;;;;;;;4.06;92.66;97333.91;106450;1302;138410;-85
2024/02/02 12:12:29;;;;;;;11.90;5.20;;;;;;;4.07;91.90;97327.34;106705;1297;22598;-88
2024/02/02 12:15:57;;;;;;;11.50;5.80;;;;;;;4.05;91.81;97330.58;106796;1301;22621;-87
2024/02/02 12:19:24;;;;;;;11.20;6.20;;;;;;;4.06;91.41;97335.12;106791;1295;25383;-87
2024/02/02 12:22:51;;;;;;;12.20;5.40;;;;;;;4.05;90.44;97333.46;106778;1301;25432;-87
2024/02/02 12:26:20;;;;;;;10.20;4.80;;;;;;;4.12;90.70;97326.11;106626;1298;138319;-87
2024/02/02 12:29:55;;;;;;;;;;;;;;;;;;;;;
2024/02/02 12:33:37;;;;;;;9.10;4.40;;;;;;;4.38;90.54;97310.88;106861;1301;138133;-87
2024/02/02 12:37:05;;;;;;;10.20;5.20;;;;;;;4.42;88.55;97299.89;106803;1302;22577;-87
2024/02/02 12:40:35;;;;;;;12.50;4.90;;;;;;;4.47;88.69;97298.67;106743;1302;22687;-87
2024/02/02 12:44:06;;;;;;;24.80;8.60;;;;;;;4.51;88.76;97296.98;106689;1301;138541;-87
2024/02/02 12:47:33;;;;;;;9.60;5.60;;;;;;;4.55;88.21;97286.52;106873;1301;25436;-87
2024/02/02 12:51:02;;;;;;;11.20;4.80;;;;;;;4.59;88.07;97285.66;106659;1298;138167;-87
2024/02/02 12:54:29;;;;;;;12.10;4.80;;;;;;;4.64;87.35;97275.66;106953;1295;22565;-87
2024/02/02 12:57:59;;;;;;;8.30;3.90;;;;;;;4.63;86.61;97277.10;106787;1302;23295;-87
2024/02/02 13:01:26;;;;;;;8.50;3.70;;;;;;;4.65;87.32;97284.32;106860;1302;138193;-87
2024/02/02 13:04:53;;;;;;;11.20;5.70;;;;;;;4.66;85.85;97272.89;106878;1302;22647;-87
2024/02/02 13:08:21;;;;;;;9.40;3.90;;;;;;;4.67;85.99;97259.94;106829;1294;138466;-86
2024/02/02 13:11:48;;;;;;;7.30;3.90;;;;;;;4.71;86.43;97259.48;106478;1302;23953;-86
2024/02/02 13:15:18;;;;;;;10.50;4.10;;;;;;;4.77;85.81;97251.27;106710;1302;137991;-86
2024/02/02 13:18:43;;;;;;;8.50;3.90;;;;;;;4.78;85.48;97248.92;106750;1301;25444;-86
2024/02/02 13:22:10;;;;;;;14.50;8.30;;;;;;;4.82;85.08;97247.27;106954;1295;22552;-86
2024/02/02 13:25:37;;;;;;;9.60;6.10;;;;;;;4.87;85.16;97242.22;106337;1296;139167;-85
2024/02/02 13:29:30;;;;;;;15.50;6.70;;;;;;;4.88;85.18;97244.02;106706;1294;22972;-86
2024/02/02 13:32:34;;;;;;;9.60;4.70;;;;;;;4.91;84.55;97240.89;106546;1301;138542;-86
2024/02/02 13:36:01;;;;;;;13.20;5.30;;;;;;;4.88;84.42;97232.54;106784;1299;22664;-86
2024/02/02 13:39:28;;;;;;;10.90;4.80;;;;;;;4.89;85.02;97234.37;106701;1298;137200;-87
2024/02/02 13:42:58;;;;;;;10.90;4.90;;;;;;;4.88;84.33;97234.23;106848;1301;22602;-87
2024/02/02 13:46:24;;;;;;;9.10;4.00;;;;;;;4.86;84.52;97226.30;102936;1302;5384833;-88
2024/02/02 13:53:21;;;;;;;8.80;4.20;;;;;;;4.89;84.72;97210.14;106395;1303;22720;-87
2024/02/02 13:56:48;;;;;;;7.60;4.00;;;;;;;4.89;84.37;97207.23;106581;1302;138063;-86
2024/02/02 14:00:21;;;;;;;11.20;5.30;;;;;;;4.84;82.82;97202.80;106801;1302;22586;-86
2024/02/02 14:07:16;;;;;;;12.70;5.30;;;;;;;4.78;83.88;97197.80;106529;1297;22581;-86
2024/02/02 14:10:44;;;;;;;11.70;6.20;;;;;;;4.79;83.71;97188.92;106698;1300;22563;-86
2024/02/02 14:14:17;;;;;;;13.00;5.10;;;;;;;4.80;83.49;97188.55;106549;1303;22717;-86
2024/02/02 14:17:25;;;;;;;;;;;;;;;4.79;83.82;97180.17;106783;1303;24257;-86
2024/02/02 14:20:44;;;;;;;;;;;;;;;;;;;;;
2024/02/02 14:24:13;;;;;;;14.70;7.00;;;;;;;4.77;83.75;97177.98;106764;1303;25451;-86
2024/02/02 14:27:52;;;;;;;12.30;5.80;;;;;;;4.75;83.54;97178.48;106563;1296;138325;-86
2024/02/02 14:31:20;;;;;;;9.70;4.90;;;;;;;4.75;82.91;97174.38;106579;1303;22979;-86
2024/02/02 14:34:38;;;;;;;;;;;;;;;;;;;;;
2024/02/02 14:38:08;;;;;;;11.00;5.10;;;;;;;4.74;82.88;97173.65;106399;1303;138299;-86
2024/02/02 14:41:27;;;;;;;9.70;4.90;;;;;;;4.69;82.23;97166.77;106864;1301;24780;-86
2024/02/02 14:44:58;;;;;;;14.70;6.00;;;;;;;4.69;82.34;97168.67;106707;1301;138484;-86
2024/02/02 14:48:25;;;;;;;9.10;4.20;;;;;;;4.71;82.31;97165.91;106724;1302;22671;-86
2024/02/02 14:52:17;;;;;;;8.70;3.50;;;;;;;4.69;81.69;97162.15;106589;1302;138894;-86
2024/02/02 14:55:25;;;;;;;7.00;4.40;;;;;;;4.62;80.76;97163.08;106698;1302;23242;-86
2024/02/02 14:59:07;;;;;;;;;;;;;;;4.55;81.15;97165.35;106777;1302;22539;-86
2024/02/02 15:01:53;;;;;;;12.30;4.60;;;;;;;4.51;81.10;97162.29;106735;1301;124734;-87
2024/02/02 15:05:20;;;;;;;10.60;5.00;;;;;;;4.45;81.51;97155.86;106867;1299;25294;-86
2024/02/02 15:08:47;;;;;;;8.60;4.60;;;;;;;4.43;81.51;97155.71;106538;1302;138680;-86
2024/02/02 15:12:15;;;;;;;10.80;5.00;;;;;;;4.38;81.35;97161.08;106705;1298;22961;-86
2024/02/02 15:15:42;;;;;;;9.70;5.40;;;;;;;4.30;81.73;97161.21;106610;1300;138217;-86
2024/02/02 15:19:09;;;;;;;12.00;6.00;;;;;;;4.22;82.85;97157.23;106739;1293;24972;-86
2024/02/02 15:22:49;;;;;;;10.40;6.30;;;;;;;4.13;83.50;97156.20;106756;1302;22582;-86
2024/02/02 15:26:16;;;;;;;12.90;7.30;;;;;;;4.05;84.27;97152.26;106684;1302;138578;-86
2024/02/02 15:29:45;;;;;;;11.00;7.00;;;;;;;4.00;84.77;97148.91;106724;1302;22652;-86
2024/02/02 15:33:11;;;;;;;11.60;7.30;;;;;;;3.92;85.32;97141.47;106589;1302;138845;-86
2024/02/02 15:36:37;;;;;;;13.80;7.30;;;;;;;3.87;85.53;97133.17;106697;1302;22563;-86
2024/02/02 15:40:07;;;;;;;10.30;6.10;;;;;;;3.85;85.72;97128.85;106615;1302;139149;-86
2024/02/02 15:43:33;;;;;;;14.80;8.40;;;;;;;3.81;85.51;97119.76;106818;1302;22998;-86
2024/02/02 15:47:03;;;;;;;14.30;8.70;;;;;;;3.79;85.63;97114.73;106632;1300;22621;-86
2024/02/02 15:50:28;;;;;;;33.20;21.20;;;;;;;3.78;85.17;97101.48;106860;1280;22628;-86
2024/02/02 15:53:58;;;;;;;24.90;13.70;;;;;;;3.74;84.80;97084.81;106755;1299;24318;-86
2024/02/02 15:57:15;;;;;;;27.60;11.90;;;;;;;3.73;84.31;97080.30;106427;1298;138521;-85
2024/02/02 16:00:42;;;;;;;53.80;19.30;;;;;;;3.68;84.29;97083.95;106609;1303;22549;-86
2024/02/02 16:04:01;;;;;;;;;;;;;;;;;;;;;
2024/02/02 16:07:30;;;;;;;20.60;10.30;;;;;;;3.67;84.24;97078.90;106781;1303;22567;-86
2024/02/02 16:10:58;;;;;;;17.30;9.70;;;;;;;3.66;84.01;97078.60;106796;1297;22559;-86
2024/02/02 16:14:36;;;;;;;16.20;8.70;;;;;;;3.66;84.19;97079.09;106518;1300;138511;-86
2024/02/02 16:18:03;;;;;;;18.00;8.80;;;;;;;3.65;84.43;97078.70;106643;1303;22595;-85
2024/02/02 16:21:32;;;;;;;22.10;10.30;;;;;;;3.63;84.47;97079.89;106457;1303;138883;-85
2024/02/02 16:24:58;;;;;;;15.00;7.80;;;;;;;3.60;84.37;97080.48;106866;1302;22559;-85
2024/02/02 16:28:26;;;;;;;16.70;7.80;;;;;;;3.59;84.58;97078.42;106522;1297;137314;-86
2024/02/02 16:31:53;;;;;;;17.80;8.10;;;;;;;3.60;84.85;97074.27;106576;1296;22731;-86
2024/02/02 16:35:22;;;;;;;18.10;9.00;;;;;;;3.62;84.98;97069.83;106578;1297;25317;-86
2024/02/02 16:38:48;;;;;;;30.30;14.40;;;;;;;3.65;84.95;97069.31;106559;1303;139315;-86
2024/02/02 16:42:14;;;;;;;40.00;18.50;;;;;;;3.64;85.20;97066.58;106617;1303;23871;-86
2024/02/02 16:45:51;;;;;;;;;;;;;;;;;;;;;
2024/02/02 16:49:14;;;;;;;22.20;11.10;;;;;;;3.64;85.02;97067.84;106694;1295;22640;-86
2024/02/02 16:52:41;;;;;;;71.70;36.50;;;;;;;3.61;85.14;97072.79;106724;1303;139139;-86
2024/02/02 16:56:09;;;;;;;30.00;16.30;;;;;;;3.64;85.06;97066.77;106660;1300;22718;-86